createdAt,value
2023-02-20T00:01:46.946Z,99.90
2023-02-20T00:04:15.198Z,99.90
2023-02-20T00:06:43.563Z,99.90
2023-02-20T00:09:11.930Z,99.90
2023-02-20T00:11:40.336Z,99.90
2023-02-20T00:14:08.745Z,99.90
2023-02-20T00:16:38.410Z,99.90
2023-02-20T00:19:06.913Z,99.90
2023-02-20T00:21:35.232Z,99.90
2023-02-20T00:24:03.533Z,99.90
2023-02-20T00:26:31.826Z,99.90
2023-02-20T00:29:00.113Z,99.90
2023-02-20T00:31:28.445Z,99.90
2023-02-20T00:33:58.185Z,99.90
2023-02-20T00:36:26.464Z,99.90
2023-02-20T00:38:54.871Z,99.90
2023-02-20T00:41:23.393Z,99.90
2023-02-20T00:43:51.684Z,99.90
2023-02-20T00:46:19.922Z,99.90
2023-02-20T00:48:49.609Z,99.90
2023-02-20T00:51:19.456Z,99.90
2023-02-20T00:53:47.802Z,99.90
2023-02-20T00:56:16.163Z,99.90
2023-02-20T00:58:44.545Z,99.90
2023-02-20T01:01:13.069Z,99.90
2023-02-20T01:03:41.392Z,99.90
2023-02-20T01:06:09.845Z,99.90
2023-02-20T01:08:39.748Z,99.90
2023-02-20T01:11:08.127Z,99.90
2023-02-20T01:13:36.462Z,99.90
2023-02-20T01:16:06.103Z,99.90
2023-02-20T01:18:34.380Z,99.90
2023-02-20T01:21:02.738Z,99.90
2023-02-20T01:23:31.139Z,99.90
2023-02-20T01:26:01.026Z,99.90
2023-02-20T01:28:29.344Z,99.90
2023-02-20T01:30:57.662Z,99.90
2023-02-20T01:33:25.960Z,99.90
2023-02-20T01:35:54.219Z,99.90
2023-02-20T01:38:22.923Z,99.90
2023-02-20T01:40:51.454Z,99.90
2023-02-20T01:43:21.096Z,99.90
2023-02-20T01:45:49.389Z,99.90
2023-02-20T01:48:23.772Z,99.90
2023-02-20T01:50:57.433Z,99.90
2023-02-20T01:53:30.013Z,99.90
2023-02-20T01:56:01.063Z,99.90
2023-02-20T01:58:32.897Z,99.90
2023-02-20T02:01:02.890Z,99.90
2023-02-20T02:03:34.896Z,99.90
2023-02-20T02:06:07.461Z,99.90
2023-02-20T02:08:37.853Z,99.90
2023-02-20T02:11:09.301Z,99.90
2023-02-20T02:13:40.436Z,99.90
2023-02-20T02:16:17.518Z,99.90
2023-02-20T02:18:56.202Z,99.90
2023-02-20T02:22:12.948Z,99.80
2023-02-20T02:25:20.494Z,99.80
2023-02-20T02:28:06.274Z,99.70
2023-02-20T02:31:07.994Z,99.60
2023-02-20T02:33:57.010Z,99.50
2023-02-20T02:37:03.518Z,99.40
2023-02-20T02:39:40.008Z,99.40
2023-02-20T02:42:16.354Z,99.30
2023-02-20T02:44:50.228Z,99.30
2023-02-20T02:47:23.868Z,99.30
2023-02-20T02:49:57.637Z,99.30
2023-02-20T02:52:48.734Z,99.30
2023-02-20T02:55:20.376Z,99.30
2023-02-20T02:57:49.166Z,99.40
2023-02-20T03:00:22.916Z,99.50
2023-02-20T03:02:58.425Z,99.50
2023-02-20T03:05:40.429Z,99.50
2023-02-20T03:08:22.519Z,99.60
2023-02-20T03:10:53.924Z,99.60
2023-02-20T03:13:22.525Z,99.60
2023-02-20T03:15:53.500Z,99.60
2023-02-20T03:18:34.692Z,99.70
2023-02-20T03:21:10.847Z,99.70
2023-02-20T03:23:48.573Z,99.70
2023-02-20T03:26:22.576Z,99.70
2023-02-20T03:28:55.820Z,99.70
2023-02-20T03:31:31.817Z,99.60
2023-02-20T03:34:22.281Z,99.60
2023-02-20T03:37:12.909Z,99.50
2023-02-20T03:40:04.243Z,99.50
2023-02-20T03:42:52.544Z,99.50
2023-02-20T03:45:24.588Z,99.50
2023-02-20T03:47:56.465Z,99.40
2023-02-20T03:50:25.019Z,99.30
2023-02-20T03:52:53.631Z,99.30
2023-02-20T03:55:24.711Z,99.30
2023-02-20T03:57:56.672Z,99.30
2023-02-20T04:00:30.063Z,99.30
2023-02-20T04:03:01.156Z,99.30
2023-02-20T04:05:33.675Z,99.30
2023-02-20T04:08:06.494Z,99.30
2023-02-20T04:10:41.422Z,99.30
2023-02-20T04:13:10.577Z,99.20
2023-02-20T04:15:39.621Z,99.20
2023-02-20T04:18:11.991Z,99.30
2023-02-20T04:20:40.555Z,99.20
2023-02-20T04:23:16.126Z,99.20
2023-02-20T04:25:50.035Z,99.30
2023-02-20T04:28:19.419Z,99.30
2023-02-20T04:30:48.557Z,99.30
2023-02-20T04:33:17.478Z,99.30
2023-02-20T04:35:46.420Z,99.20
2023-02-20T04:38:15.808Z,99.20
2023-02-20T04:40:46.068Z,99.20
2023-02-20T04:43:14.777Z,99.20
2023-02-20T04:45:43.420Z,99.20
2023-02-20T04:48:12.139Z,99.20
2023-02-20T04:50:41.346Z,99.30
2023-02-20T04:53:10.862Z,99.30
2023-02-20T04:55:39.622Z,99.30
2023-02-20T04:58:10.311Z,99.30
2023-02-20T05:00:38.684Z,99.20
2023-02-20T05:03:06.966Z,99.20
2023-02-20T05:05:35.297Z,99.20
2023-02-20T05:08:05.609Z,99.20
2023-02-20T05:10:35.710Z,99.20
2023-02-20T05:13:04.301Z,99.10
2023-02-20T05:15:34.249Z,99.10
2023-02-20T05:18:02.617Z,99.10
2023-02-20T05:20:48.189Z,99.10
2023-02-20T05:23:16.478Z,99.10
2023-02-20T05:25:44.734Z,99.10
2023-02-20T05:28:13.099Z,99.10
2023-02-20T05:30:42.849Z,99.10
2023-02-20T05:33:11.209Z,99.10
2023-02-20T05:35:41.858Z,99.00
2023-02-20T05:38:10.135Z,99.00
2023-02-20T05:40:39.328Z,99.10
2023-02-20T05:43:07.620Z,99.10
2023-02-20T05:45:35.949Z,99.10
2023-02-20T05:48:10.512Z,99.10
2023-02-20T05:50:38.746Z,99.10
2023-02-20T05:53:08.040Z,99.00
2023-02-20T05:55:36.295Z,99.00
2023-02-20T05:58:04.656Z,99.00
2023-02-20T06:00:32.964Z,99.00
2023-02-20T06:03:01.236Z,98.90
2023-02-20T06:05:30.965Z,99.00
2023-02-20T06:08:00.625Z,98.90
2023-02-20T06:10:29.387Z,98.90
2023-02-20T06:12:57.636Z,98.90
2023-02-20T06:15:26.009Z,98.90
2023-02-20T06:17:54.237Z,98.90
2023-02-20T06:20:23.276Z,98.90
2023-02-20T06:22:52.916Z,98.90
2023-02-20T06:25:21.175Z,98.90
2023-02-20T06:27:49.433Z,98.90
2023-02-20T06:30:18.363Z,98.90
2023-02-20T06:32:47.143Z,98.90
2023-02-20T06:35:15.983Z,98.90
2023-02-20T06:37:44.299Z,98.90
2023-02-20T06:40:14.653Z,98.90
2023-02-20T06:42:42.951Z,99.00
2023-02-20T06:45:15.003Z,99.00
2023-02-20T06:47:43.668Z,99.00
2023-02-20T06:50:12.012Z,99.00
2023-02-20T06:52:40.462Z,99.10
2023-02-20T06:55:09.340Z,99.10
2023-02-20T06:57:38.994Z,99.10
2023-02-20T07:00:11.242Z,99.20
2023-02-20T07:02:39.801Z,99.20
2023-02-20T07:05:09.525Z,99.30
2023-02-20T07:07:37.891Z,99.30
2023-02-20T07:10:07.693Z,99.30
2023-02-20T07:12:38.569Z,99.40
2023-02-20T07:15:09.894Z,99.50
2023-02-20T07:17:38.289Z,99.40
2023-02-20T07:20:07.948Z,99.50
2023-02-20T07:22:36.324Z,99.50
2023-02-20T07:25:04.864Z,99.60
2023-02-20T07:27:33.627Z,99.70
2023-02-20T07:30:01.992Z,99.70
2023-02-20T07:32:31.652Z,99.70
2023-02-20T07:35:05.318Z,99.80
2023-02-20T07:37:34.569Z,99.80
2023-02-20T07:40:02.846Z,99.90
2023-02-20T07:42:32.789Z,99.90
2023-02-20T07:45:01.135Z,99.90
2023-02-20T07:47:29.775Z,99.90
2023-02-20T07:49:59.465Z,99.90
2023-02-20T07:52:27.752Z,99.90
2023-02-20T07:54:56.039Z,99.90
2023-02-20T07:57:24.305Z,99.90
2023-02-20T07:59:52.575Z,99.90
2023-02-20T08:02:21.560Z,99.90
2023-02-20T08:04:49.914Z,99.90
2023-02-20T08:07:19.662Z,99.90
2023-02-20T08:09:48.399Z,99.90
2023-02-20T08:12:17.382Z,99.90
2023-02-20T08:14:45.635Z,99.90
2023-02-20T08:17:13.918Z,99.90
2023-02-20T08:19:42.208Z,99.90
2023-02-20T08:22:10.452Z,99.90
2023-02-20T08:24:40.126Z,99.90
2023-02-20T08:27:08.557Z,99.90
2023-02-20T08:29:36.924Z,99.90
2023-02-20T08:32:05.692Z,99.90
2023-02-20T08:34:34.016Z,99.90
2023-02-20T08:37:02.301Z,99.90
2023-02-20T08:39:30.619Z,99.90
2023-02-20T08:42:01.456Z,99.90
2023-02-20T08:44:29.813Z,99.90
2023-02-20T08:46:58.124Z,99.90
2023-02-20T08:49:27.293Z,99.90
2023-02-20T08:51:58.350Z,99.90
2023-02-20T08:54:26.579Z,99.90
2023-02-20T08:56:55.196Z,99.90
2023-02-20T08:59:24.868Z,99.90
2023-02-20T09:01:53.154Z,99.90
2023-02-20T09:04:22.843Z,99.90
2023-02-20T09:06:51.189Z,99.90
2023-02-20T09:09:19.536Z,99.90
2023-02-20T09:11:48.002Z,99.90
2023-02-20T09:14:16.742Z,99.90
2023-02-20T09:16:46.463Z,99.90
2023-02-20T09:19:15.400Z,99.90
2023-02-20T09:21:47.530Z,99.90
2023-02-20T09:24:15.772Z,99.90
2023-02-20T09:26:44.327Z,99.90
2023-02-20T09:29:12.578Z,99.90
2023-02-20T09:31:41.008Z,99.90
2023-02-20T09:34:10.718Z,99.90
2023-02-20T09:36:39.011Z,99.90
2023-02-20T09:39:07.285Z,99.90
2023-02-20T09:41:45.210Z,99.90
2023-02-20T09:44:17.908Z,99.90
2023-02-20T09:46:49.633Z,99.90
2023-02-20T09:49:25.105Z,99.90
2023-02-20T09:51:57.786Z,99.90
2023-02-20T09:54:29.892Z,99.90
2023-02-20T09:57:00.980Z,99.90
2023-02-20T09:59:34.684Z,99.90
2023-02-20T10:02:10.575Z,99.90
2023-02-20T10:04:49.642Z,99.90
2023-02-20T10:07:31.102Z,99.90
2023-02-20T10:10:01.068Z,99.90
2023-02-20T10:12:36.246Z,99.90
2023-02-20T10:15:20.896Z,99.90
2023-02-20T10:17:56.366Z,99.90
2023-02-20T10:20:35.034Z,99.90
2023-02-20T10:23:13.569Z,99.90
2023-02-20T10:25:45.007Z,99.90
2023-02-20T10:28:16.714Z,99.90
2023-02-20T10:30:49.913Z,99.90
2023-02-20T10:33:30.027Z,99.90
2023-02-20T10:36:05.636Z,99.90
2023-02-20T10:38:40.995Z,99.80
2023-02-20T10:41:17.395Z,99.80
2023-02-20T10:43:51.963Z,99.70
2023-02-20T10:46:36.876Z,99.50
2023-02-20T10:49:15.724Z,98.90
2023-02-20T10:51:49.943Z,98.80
2023-02-20T10:54:24.543Z,99.00
2023-02-20T10:56:59.383Z,99.00
2023-02-20T10:59:32.108Z,98.60
2023-02-20T11:02:03.875Z,98.00
2023-02-20T11:04:35.883Z,98.10
2023-02-20T11:07:11.231Z,98.20
2023-02-20T11:09:39.523Z,98.40
2023-02-20T11:12:09.032Z,98.20
2023-02-20T11:14:47.357Z,97.60
2023-02-20T11:17:17.508Z,97.50
2023-02-20T11:19:48.818Z,97.50
2023-02-20T11:22:20.570Z,97.70
2023-02-20T11:24:49.063Z,98.00
2023-02-20T11:27:20.677Z,98.10
2023-02-20T11:29:52.678Z,98.20
2023-02-20T11:32:37.197Z,97.50
2023-02-20T11:35:30.116Z,97.70
2023-02-20T11:38:27.836Z,98.00
2023-02-20T11:41:25.844Z,97.40
2023-02-20T11:44:15.758Z,97.50
2023-02-20T11:46:47.300Z,97.40
2023-02-20T11:49:26.399Z,97.50
2023-02-20T11:52:07.198Z,97.50
2023-02-20T11:54:36.990Z,97.50
2023-02-20T11:57:07.842Z,97.40
2023-02-20T11:59:39.390Z,97.30
2023-02-20T12:02:26.711Z,96.90
2023-02-20T12:05:13.669Z,96.70
2023-02-20T12:07:45.054Z,96.70
2023-02-20T12:10:40.442Z,96.50
2023-02-20T12:13:13.833Z,96.10
2023-02-20T12:15:43.279Z,96.30
2023-02-20T12:18:37.378Z,96.30
2023-02-20T12:21:25.282Z,96.50
2023-02-20T12:24:14.047Z,96.50
2023-02-20T12:26:55.534Z,95.80
2023-02-20T12:29:39.390Z,95.90
2023-02-20T12:32:27.814Z,95.90
2023-02-20T12:35:25.480Z,96.00
2023-02-20T12:38:03.544Z,96.10
2023-02-20T12:40:46.132Z,96.20
2023-02-20T12:43:28.973Z,95.90
2023-02-20T12:46:06.679Z,95.50
2023-02-20T12:48:49.477Z,95.80
2023-02-20T12:51:29.542Z,95.70
2023-02-20T12:54:13.372Z,95.60
2023-02-20T12:56:53.364Z,94.90
2023-02-20T12:59:30.136Z,95.30
2023-02-20T13:02:04.788Z,95.30
2023-02-20T13:04:46.529Z,94.80
2023-02-20T13:07:19.864Z,94.60
2023-02-20T13:10:01.617Z,94.70
2023-02-20T13:12:30.239Z,94.50
2023-02-20T13:15:13.725Z,94.40
2023-02-20T13:17:48.594Z,94.40
2023-02-20T13:20:21.962Z,94.40
2023-02-20T13:23:03.892Z,94.40
2023-02-20T13:25:43.782Z,94.50
2023-02-20T13:28:30.425Z,94.50
2023-02-20T13:31:12.416Z,94.40
2023-02-20T13:33:42.163Z,94.00
2023-02-20T13:36:19.572Z,93.90
2023-02-20T13:39:20.733Z,94.20
2023-02-20T13:42:04.642Z,94.20
2023-02-20T13:44:44.247Z,94.10
2023-02-20T13:47:36.389Z,93.90
2023-02-20T13:50:20.424Z,93.90
2023-02-20T13:52:49.383Z,94.10
2023-02-20T13:55:24.017Z,94.20
2023-02-20T13:57:54.764Z,94.30
2023-02-20T14:00:29.601Z,94.10
2023-02-20T14:02:59.433Z,93.90
2023-02-20T14:05:30.714Z,94.00
2023-02-20T14:08:00.597Z,94.00
2023-02-20T14:10:32.083Z,93.60
2023-02-20T14:13:03.517Z,93.40
2023-02-20T14:15:34.508Z,93.10
2023-02-20T14:18:04.230Z,93.30
2023-02-20T14:20:37.088Z,93.50
2023-02-20T14:23:10.287Z,93.50
2023-02-20T14:25:40.007Z,93.30
2023-02-20T14:28:13.524Z,93.30
2023-02-20T14:30:42.648Z,93.20
2023-02-20T14:33:28.849Z,92.70
2023-02-20T14:36:15.843Z,92.50
2023-02-20T14:39:08.179Z,92.70
2023-02-20T14:41:37.234Z,92.60
2023-02-20T14:44:12.520Z,92.70
2023-02-20T14:46:40.854Z,92.80
2023-02-20T14:49:13.505Z,93.00
2023-02-20T14:51:42.224Z,93.00
2023-02-20T14:54:20.688Z,92.50
2023-02-20T14:56:49.838Z,92.40
2023-02-20T14:59:26.333Z,92.00
2023-02-20T15:01:58.247Z,92.00
2023-02-20T15:04:29.097Z,92.30
2023-02-20T15:07:05.214Z,92.30
2023-02-20T15:09:41.393Z,92.10
2023-02-20T15:12:20.083Z,92.20
2023-02-20T15:14:56.434Z,92.20
2023-02-20T15:17:27.524Z,92.20
2023-02-20T15:19:57.581Z,91.90
2023-02-20T15:22:29.115Z,91.70
2023-02-20T15:25:15.011Z,91.80
2023-02-20T15:28:05.028Z,91.80
2023-02-20T15:30:33.652Z,91.80
2023-02-20T15:33:02.018Z,91.70
2023-02-20T15:35:33.940Z,91.80
2023-02-20T15:38:03.932Z,91.80
2023-02-20T15:40:34.602Z,92.00
2023-02-20T15:43:04.699Z,92.20
2023-02-20T15:45:41.638Z,92.10
2023-02-20T15:48:10.677Z,92.20
2023-02-20T15:50:40.348Z,92.30
2023-02-20T15:53:08.825Z,92.20
2023-02-20T15:55:37.553Z,92.20
2023-02-20T15:58:22.613Z,92.20
2023-02-20T16:00:53.523Z,92.20
2023-02-20T16:03:22.702Z,92.20
2023-02-20T16:05:52.801Z,92.20
2023-02-20T16:08:22.797Z,92.20
2023-02-20T16:10:52.033Z,92.10
2023-02-20T16:13:26.814Z,92.00
2023-02-20T16:15:55.291Z,92.00
2023-02-20T16:18:24.809Z,92.10
2023-02-20T16:20:55.828Z,92.10
2023-02-20T16:23:24.124Z,92.20
2023-02-20T16:25:52.972Z,92.20
2023-02-20T16:28:21.606Z,92.20
2023-02-20T16:30:50.226Z,92.30
2023-02-20T16:33:21.607Z,92.40
2023-02-20T16:35:53.049Z,92.50
2023-02-20T16:38:26.586Z,92.70
2023-02-20T16:40:56.652Z,92.80
2023-02-20T16:43:26.011Z,92.80
2023-02-20T16:45:54.528Z,92.90
2023-02-20T16:48:23.012Z,93.00
2023-02-20T16:50:54.282Z,93.20
2023-02-20T16:53:23.963Z,93.40
2023-02-20T16:55:53.625Z,93.60
2023-02-20T16:58:21.898Z,93.90
2023-02-20T17:00:57.406Z,93.90
2023-02-20T17:03:27.848Z,94.10
2023-02-20T17:05:59.653Z,94.20
2023-02-20T17:08:29.930Z,94.20
2023-02-20T17:10:58.300Z,94.20
2023-02-20T17:13:27.033Z,94.30
2023-02-20T17:15:56.720Z,94.30
2023-02-20T17:18:26.555Z,94.30
2023-02-20T17:20:55.272Z,94.30
2023-02-20T17:23:24.323Z,94.30
2023-02-20T17:25:55.572Z,94.30
2023-02-20T17:28:23.913Z,94.20
2023-02-20T17:30:54.567Z,94.20
2023-02-20T17:33:26.030Z,94.10
2023-02-20T17:35:55.414Z,94.10
2023-02-20T17:38:24.644Z,94.00
2023-02-20T17:40:54.395Z,94.00
2023-02-20T17:43:23.354Z,93.90
2023-02-20T17:45:51.716Z,93.90
2023-02-20T17:48:20.582Z,93.90
2023-02-20T17:50:48.865Z,93.90
2023-02-20T17:53:18.037Z,93.90
2023-02-20T17:55:46.510Z,93.90
2023-02-20T17:58:16.397Z,93.80
2023-02-20T18:00:45.754Z,93.80
2023-02-20T18:03:14.000Z,93.80
2023-02-20T18:05:42.968Z,93.90
2023-02-20T18:08:11.575Z,93.80
2023-02-20T18:10:40.005Z,93.80
2023-02-20T18:13:09.816Z,93.80
2023-02-20T18:15:42.009Z,93.70
2023-02-20T18:18:14.206Z,93.70
2023-02-20T18:20:43.051Z,93.70
2023-02-20T18:23:11.793Z,93.70
2023-02-20T18:25:41.246Z,93.70
2023-02-20T18:28:11.819Z,93.70
2023-02-20T18:30:42.648Z,93.70
2023-02-20T18:33:11.161Z,93.80
2023-02-20T18:35:39.507Z,93.70
2023-02-20T18:38:09.880Z,93.80
2023-02-20T18:40:38.902Z,93.80
2023-02-20T18:43:08.517Z,93.80
2023-02-20T18:45:37.902Z,93.90
2023-02-20T18:48:08.620Z,93.90
2023-02-20T18:50:37.486Z,94.00
2023-02-20T18:53:06.008Z,94.00
2023-02-20T18:55:35.128Z,94.00
2023-02-20T18:58:04.743Z,94.00
2023-02-20T19:00:34.678Z,94.00
2023-02-20T19:03:04.463Z,94.00
2023-02-20T19:05:34.281Z,94.00
2023-02-20T19:08:04.506Z,94.00
2023-02-20T19:10:33.211Z,94.10
2023-02-20T19:13:01.501Z,94.10
2023-02-20T19:15:29.860Z,94.10
2023-02-20T19:17:58.225Z,94.10
2023-02-20T19:20:29.350Z,94.10
2023-02-20T19:23:00.737Z,94.10
2023-02-20T19:25:29.143Z,94.10
2023-02-20T19:27:57.560Z,94.10
2023-02-20T19:30:25.878Z,94.10
2023-02-20T19:32:54.264Z,94.10
2023-02-20T19:35:23.114Z,94.10
2023-02-20T19:37:51.426Z,94.20
2023-02-20T19:40:21.778Z,94.30
2023-02-20T19:42:50.454Z,94.30
2023-02-20T19:45:19.172Z,94.40
2023-02-20T19:47:48.287Z,94.40
2023-02-20T19:50:20.546Z,94.40
2023-02-20T19:52:49.042Z,94.40
2023-02-20T19:55:19.365Z,94.30
2023-02-20T19:57:49.202Z,94.40
2023-02-20T20:00:20.555Z,94.40
2023-02-20T20:02:52.061Z,94.50
2023-02-20T20:05:24.804Z,94.40
2023-02-20T20:07:53.343Z,94.40
2023-02-20T20:10:23.870Z,94.40
2023-02-20T20:12:54.813Z,94.40
2023-02-20T20:15:26.328Z,94.70
2023-02-20T20:17:57.637Z,94.40
2023-02-20T20:20:26.718Z,94.40
2023-02-20T20:22:57.320Z,94.40
2023-02-20T20:25:26.287Z,94.30
2023-02-20T20:27:57.829Z,94.40
2023-02-20T20:30:28.322Z,94.40
2023-02-20T20:32:57.811Z,94.40
2023-02-20T20:35:28.026Z,94.40
2023-02-20T20:37:57.204Z,94.70
2023-02-20T20:40:27.049Z,94.40
2023-02-20T20:42:58.124Z,94.40
2023-02-20T20:45:27.863Z,94.50
2023-02-20T20:47:56.621Z,94.50
2023-02-20T20:50:29.171Z,94.60
2023-02-20T20:53:00.803Z,94.70
2023-02-20T20:55:29.882Z,94.70
2023-02-20T20:57:59.656Z,94.80
2023-02-20T21:00:30.565Z,94.70
2023-02-20T21:02:59.468Z,94.70
2023-02-20T21:05:30.385Z,94.70
2023-02-20T21:07:59.244Z,94.80
2023-02-20T21:10:28.640Z,94.90
2023-02-20T21:12:58.612Z,95.00
2023-02-20T21:15:29.128Z,95.10
2023-02-20T21:17:58.301Z,95.10
2023-02-20T21:20:29.490Z,95.10
2023-02-20T21:22:59.908Z,95.10
2023-02-20T21:25:28.836Z,95.10
2023-02-20T21:27:58.734Z,95.10
2023-02-20T21:30:29.505Z,95.10
2023-02-20T21:32:59.231Z,95.20
2023-02-20T21:35:27.543Z,95.20
2023-02-20T21:37:56.491Z,95.20
2023-02-20T21:40:24.892Z,95.30
2023-02-20T21:43:11.557Z,95.30
2023-02-20T21:45:41.242Z,95.30
2023-02-20T21:48:11.841Z,95.40
2023-02-20T21:50:41.617Z,95.40
2023-02-20T21:53:10.936Z,95.50
2023-02-20T21:55:39.275Z,95.60
2023-02-20T21:58:12.452Z,95.50
2023-02-20T22:00:40.883Z,95.40
2023-02-20T22:03:08.072Z,95.50
2023-02-20T22:05:35.144Z,95.50
2023-02-20T22:08:20.958Z,95.50
2023-02-20T22:11:06.349Z,95.50
2023-02-20T22:13:51.843Z,95.50
2023-02-20T22:16:39.864Z,95.60
2023-02-20T22:19:25.342Z,95.70
2023-02-20T22:22:10.872Z,95.70
2023-02-20T22:24:56.597Z,95.70
2023-02-20T22:27:42.037Z,95.80
2023-02-20T22:30:28.506Z,95.90
2023-02-20T22:33:15.853Z,95.90
2023-02-20T22:36:01.380Z,96.00
2023-02-20T22:38:46.874Z,96.10
2023-02-20T22:41:38.213Z,96.10
2023-02-20T22:44:23.979Z,96.10
2023-02-20T22:47:09.818Z,96.10
2023-02-20T22:49:56.891Z,96.20
2023-02-20T22:52:42.468Z,96.30
2023-02-20T22:55:30.810Z,96.40
2023-02-20T22:58:16.182Z,96.50
2023-02-20T23:01:02.296Z,96.50
2023-02-20T23:03:47.882Z,96.50
2023-02-20T23:06:38.970Z,96.60
2023-02-20T23:09:25.369Z,96.60
2023-02-20T23:12:11.569Z,96.70
2023-02-20T23:14:57.702Z,96.80
2023-02-20T23:17:43.166Z,96.90
2023-02-20T23:20:33.027Z,96.90
2023-02-20T23:23:20.090Z,97.10
2023-02-20T23:26:05.665Z,97.20
2023-02-20T23:28:51.950Z,97.20
2023-02-20T23:31:38.356Z,97.20
2023-02-20T23:34:24.044Z,97.30
2023-02-20T23:37:11.419Z,97.50
2023-02-20T23:39:58.826Z,97.50
2023-02-20T23:42:44.337Z,97.50
2023-02-20T23:45:30.400Z,97.60
2023-02-20T23:48:15.943Z,97.60
2023-02-20T23:51:01.951Z,97.70
2023-02-20T23:53:47.457Z,97.70
2023-02-20T23:56:34.340Z,97.60
2023-02-20T23:59:20.175Z,97.60
